createdAt,value
2019-06-26T00:01:52.091Z,23.66
2019-06-26T00:04:20.510Z,23.62
2019-06-26T00:06:48.937Z,23.61
2019-06-26T00:09:17.343Z,23.57
2019-06-26T00:11:45.772Z,23.56
2019-06-26T00:14:14.206Z,23.56
2019-06-26T00:16:42.615Z,23.55
2019-06-26T00:19:11.067Z,23.52
2019-06-26T00:21:39.457Z,23.49
2019-06-26T00:24:08.040Z,23.46
2019-06-26T00:26:36.607Z,23.43
2019-06-26T00:29:05.023Z,23.43
2019-06-26T00:31:33.461Z,23.41
2019-06-26T00:34:01.875Z,23.39
2019-06-26T00:36:30.298Z,23.35
2019-06-26T00:38:58.782Z,23.32
2019-06-26T00:41:27.217Z,23.28
2019-06-26T00:43:55.622Z,23.22
2019-06-26T00:46:24.066Z,23.20
2019-06-26T00:48:52.473Z,23.17
2019-06-26T00:51:20.885Z,23.12
2019-06-26T00:53:49.325Z,23.12
2019-06-26T00:56:17.752Z,23.10
2019-06-26T00:58:46.172Z,23.03
2019-06-26T01:01:14.605Z,22.99
2019-06-26T01:03:43.124Z,22.97
2019-06-26T01:06:13.157Z,22.95
2019-06-26T01:08:41.627Z,22.96
2019-06-26T01:11:10.016Z,22.94
2019-06-26T01:13:38.473Z,22.96
2019-06-26T01:16:06.943Z,22.93
2019-06-26T01:18:35.371Z,22.93
2019-06-26T01:21:03.831Z,22.89
2019-06-26T01:23:32.235Z,22.92
2019-06-26T01:26:00.653Z,22.94
2019-06-26T01:28:29.113Z,22.91
2019-06-26T01:30:57.513Z,22.90
2019-06-26T01:33:25.928Z,22.89
2019-06-26T01:35:54.427Z,22.91
2019-06-26T01:38:22.854Z,22.90
2019-06-26T01:40:51.290Z,22.91
2019-06-26T01:43:19.869Z,22.87
2019-06-26T01:45:48.293Z,22.86
2019-06-26T01:48:16.722Z,22.84
2019-06-26T01:50:45.130Z,22.79
2019-06-26T01:53:13.553Z,22.79
2019-06-26T01:55:41.989Z,22.75
2019-06-26T01:58:10.420Z,22.73
2019-06-26T02:00:38.903Z,22.70
2019-06-26T02:03:07.342Z,22.68
2019-06-26T02:05:35.792Z,22.65
2019-06-26T02:08:04.278Z,22.63
2019-06-26T02:10:32.702Z,22.62
2019-06-26T02:13:01.135Z,22.58
2019-06-26T02:15:29.554Z,22.57
2019-06-26T02:17:58.000Z,22.54
2019-06-26T02:20:26.435Z,22.50
2019-06-26T02:22:54.870Z,22.50
2019-06-26T02:25:23.300Z,22.46
2019-06-26T02:27:51.807Z,22.45
2019-06-26T02:30:20.359Z,22.44
2019-06-26T02:32:48.782Z,22.40
2019-06-26T02:35:17.384Z,22.39
2019-06-26T02:37:45.811Z,22.37
2019-06-26T02:40:15.135Z,22.33
2019-06-26T02:42:43.571Z,22.31
2019-06-26T02:45:12.461Z,22.29
2019-06-26T02:47:40.864Z,22.27
2019-06-26T02:50:10.740Z,22.27
2019-06-26T02:52:39.159Z,22.22
2019-06-26T02:55:07.815Z,22.20
2019-06-26T02:57:36.226Z,22.19
2019-06-26T03:00:06.864Z,22.18
2019-06-26T03:02:35.293Z,22.15
2019-06-26T03:05:05.038Z,22.15
2019-06-26T03:07:33.486Z,22.11
2019-06-26T03:10:02.396Z,22.11
2019-06-26T03:12:30.777Z,22.10
2019-06-26T03:15:08.966Z,22.07
2019-06-26T03:17:29.353Z,22.01
2019-06-26T03:19:57.779Z,22.01
2019-06-26T03:22:26.211Z,22.10
2019-06-26T03:24:54.647Z,22.11
2019-06-26T03:27:23.144Z,22.10
2019-06-26T03:29:51.737Z,22.12
2019-06-26T03:32:20.185Z,22.13
2019-06-26T03:34:48.616Z,22.16
2019-06-26T03:37:17.019Z,22.17
2019-06-26T03:39:45.443Z,22.17
2019-06-26T03:42:13.884Z,22.21
2019-06-26T03:44:42.305Z,22.22
2019-06-26T03:47:10.727Z,22.24
2019-06-26T03:49:39.175Z,22.27
2019-06-26T03:52:07.586Z,22.27
2019-06-26T03:54:36.056Z,22.32
2019-06-26T03:57:04.542Z,22.35
2019-06-26T03:59:32.958Z,22.36
2019-06-26T04:02:01.401Z,22.42
2019-06-26T04:04:29.818Z,22.50
2019-06-26T04:06:58.267Z,22.56
2019-06-26T04:09:26.691Z,22.60
2019-06-26T04:11:55.109Z,22.65
2019-06-26T04:16:50.889Z,22.78
2019-06-26T04:19:19.290Z,22.83
2019-06-26T04:21:47.732Z,22.87
2019-06-26T04:24:16.224Z,22.90
2019-06-26T04:26:44.650Z,22.97
2019-06-26T04:29:13.074Z,23.07
2019-06-26T04:31:41.587Z,23.12
2019-06-26T04:34:09.980Z,23.18
2019-06-26T04:36:38.384Z,23.27
2019-06-26T04:39:07.357Z,23.33
2019-06-26T04:41:35.783Z,23.40
2019-06-26T04:44:04.564Z,23.49
2019-06-26T04:46:33.009Z,23.54
2019-06-26T04:49:01.467Z,23.61
2019-06-26T04:51:29.856Z,23.66
2019-06-26T04:53:58.298Z,23.76
2019-06-26T04:56:26.724Z,23.83
2019-06-26T04:58:55.142Z,23.95
2019-06-26T05:01:23.568Z,24.15
2019-06-26T05:03:52.642Z,24.32
2019-06-26T05:06:21.123Z,24.76
2019-06-26T05:08:49.526Z,25.37
2019-06-26T05:11:18.016Z,25.73
2019-06-26T05:13:46.480Z,26.05
2019-06-26T05:16:19.263Z,26.16
2019-06-26T05:18:45.034Z,26.06
2019-06-26T05:21:13.439Z,26.18
2019-06-26T05:23:41.855Z,26.15
2019-06-26T05:26:10.363Z,26.20
2019-06-26T05:28:38.757Z,26.28
2019-06-26T05:31:07.194Z,26.34
2019-06-26T05:33:35.599Z,26.34
2019-06-26T05:36:04.182Z,26.44
2019-06-26T05:38:32.621Z,26.50
2019-06-26T05:41:01.035Z,26.82
2019-06-26T05:43:29.444Z,27.24
2019-06-26T05:45:57.896Z,27.64
2019-06-26T05:48:26.297Z,27.91
2019-06-26T05:50:54.721Z,28.26
2019-06-26T05:53:23.142Z,28.45
2019-06-26T05:55:51.649Z,28.95
2019-06-26T05:58:20.064Z,29.61
2019-06-26T06:00:48.511Z,30.23
2019-06-26T06:03:16.916Z,30.74
2019-06-26T06:05:45.407Z,31.17
2019-06-26T06:08:13.873Z,31.88
2019-06-26T06:10:43.602Z,32.10
2019-06-26T06:13:12.856Z,32.24
2019-06-26T06:15:41.761Z,32.04
2019-06-26T06:18:10.160Z,31.81
2019-06-26T06:20:39.917Z,32.36
2019-06-26T06:23:08.501Z,32.36
2019-06-26T06:25:37.176Z,31.72
2019-06-26T06:28:05.594Z,32.07
2019-06-26T06:30:34.022Z,31.99
2019-06-26T06:33:02.543Z,32.28
2019-06-26T06:35:31.055Z,31.72
2019-06-26T06:37:59.492Z,31.85
2019-06-26T06:40:27.888Z,31.95
2019-06-26T06:42:56.299Z,31.59
2019-06-26T06:45:24.982Z,31.37
2019-06-26T06:47:53.470Z,31.33
2019-06-26T06:50:21.899Z,31.15
2019-06-26T06:52:50.336Z,30.80
2019-06-26T06:55:19.380Z,30.73
2019-06-26T06:57:47.793Z,30.95
2019-06-26T07:00:16.912Z,30.75
2019-06-26T07:02:45.243Z,30.72
2019-06-26T07:05:14.648Z,30.87
2019-06-26T07:07:43.078Z,30.97
2019-06-26T07:10:11.749Z,30.87
2019-06-26T07:12:40.170Z,31.12
2019-06-26T07:15:09.521Z,31.19
2019-06-26T07:17:38.016Z,31.02
2019-06-26T07:20:07.151Z,31.09
2019-06-26T07:22:35.576Z,31.27
2019-06-26T07:25:04.914Z,31.46
2019-06-26T07:27:33.327Z,31.62
2019-06-26T07:30:01.776Z,31.58
2019-06-26T07:32:30.237Z,31.99
2019-06-26T07:34:58.710Z,32.25
2019-06-26T07:37:27.181Z,32.61
2019-06-26T07:40:00.346Z,32.55
2019-06-26T07:42:25.759Z,32.86
2019-06-26T07:44:54.189Z,33.59
2019-06-26T07:47:28.209Z,33.49
2019-06-26T07:49:52.776Z,33.56
2019-06-26T07:52:21.198Z,33.35
2019-06-26T07:54:49.606Z,33.06
2019-06-26T07:57:18.011Z,32.85
2019-06-26T07:59:46.434Z,33.34
2019-06-26T08:02:14.917Z,33.10
2019-06-26T08:04:43.334Z,33.65
2019-06-26T08:07:11.835Z,33.59
2019-06-26T08:09:40.242Z,33.60
2019-06-26T08:12:08.716Z,33.34
2019-06-26T08:14:37.129Z,32.83
2019-06-26T08:17:05.695Z,33.19
2019-06-26T08:19:34.235Z,32.79
2019-06-26T08:22:02.632Z,32.91
2019-06-26T08:24:31.048Z,33.06
2019-06-26T08:26:59.499Z,33.05
2019-06-26T08:29:27.910Z,33.15
2019-06-26T08:31:56.338Z,33.16
2019-06-26T08:34:24.821Z,33.19
2019-06-26T08:36:53.275Z,33.21
2019-06-26T08:39:21.795Z,33.18
2019-06-26T08:41:50.235Z,33.33
2019-06-26T08:44:18.625Z,33.42
2019-06-26T08:46:47.046Z,33.36
2019-06-26T08:49:25.793Z,33.36
2019-06-26T08:51:45.982Z,33.31
2019-06-26T08:54:14.401Z,33.39
2019-06-26T08:56:42.900Z,33.23
2019-06-26T08:59:11.417Z,33.22
2019-06-26T09:01:39.862Z,33.36
2019-06-26T09:04:08.375Z,33.29
2019-06-26T09:06:36.851Z,33.19
2019-06-26T09:09:07.622Z,33.40
2019-06-26T09:11:36.418Z,33.43
2019-06-26T09:14:05.231Z,33.27
2019-06-26T09:16:33.700Z,33.33
2019-06-26T09:19:02.137Z,32.83
2019-06-26T09:21:31.376Z,32.84
2019-06-26T09:24:00.189Z,32.95
2019-06-26T09:26:28.599Z,32.91
2019-06-26T09:28:57.065Z,32.78
2019-06-26T09:31:25.491Z,33.00
2019-06-26T09:33:53.922Z,33.23
2019-06-26T09:36:22.493Z,33.23
2019-06-26T09:38:50.968Z,33.38
2019-06-26T09:41:19.348Z,33.47
2019-06-26T09:43:47.766Z,33.51
2019-06-26T09:46:16.274Z,33.38
2019-06-26T09:48:52.770Z,33.42
2019-06-26T09:51:14.926Z,33.44
2019-06-26T09:53:47.550Z,33.37
2019-06-26T09:56:13.532Z,33.51
2019-06-26T09:58:41.989Z,33.48
2019-06-26T10:01:10.444Z,33.44
2019-06-26T10:03:38.907Z,33.44
2019-06-26T10:06:07.336Z,33.49
2019-06-26T10:08:35.749Z,33.75
2019-06-26T10:11:04.343Z,33.64
2019-06-26T10:13:32.866Z,33.49
2019-06-26T10:16:01.308Z,33.47
2019-06-26T10:18:29.760Z,33.43
2019-06-26T10:20:58.235Z,33.60
2019-06-26T10:23:26.672Z,33.73
2019-06-26T10:25:55.175Z,33.81
2019-06-26T10:28:23.733Z,33.58
2019-06-26T10:30:52.168Z,33.58
2019-06-26T10:33:20.549Z,33.55
2019-06-26T10:35:48.976Z,33.66
2019-06-26T10:38:17.416Z,33.47
2019-06-26T10:40:45.808Z,33.29
2019-06-26T10:43:14.252Z,33.43
2019-06-26T10:45:42.796Z,33.68
2019-06-26T10:48:11.262Z,33.72
2019-06-26T10:50:49.835Z,33.77
2019-06-26T10:53:09.851Z,33.71
2019-06-26T10:55:38.278Z,33.86
2019-06-26T10:58:06.691Z,33.96
2019-06-26T11:00:35.241Z,33.78
2019-06-26T11:03:03.769Z,33.80
2019-06-26T11:05:32.196Z,33.67
2019-06-26T11:08:00.585Z,33.93
2019-06-26T11:10:29.095Z,33.79
2019-06-26T11:12:57.466Z,33.82
2019-06-26T11:15:25.992Z,33.60
2019-06-26T11:17:54.451Z,33.81
2019-06-26T11:20:22.940Z,33.49
2019-06-26T11:22:51.376Z,33.53
2019-06-26T11:25:21.691Z,33.19
2019-06-26T11:27:50.202Z,33.36
2019-06-26T11:30:20.572Z,33.39
2019-06-26T11:32:48.975Z,33.58
2019-06-26T11:35:18.069Z,33.68
2019-06-26T11:37:46.491Z,33.57
2019-06-26T11:40:15.550Z,33.69
2019-06-26T11:42:43.965Z,33.79
2019-06-26T11:45:13.941Z,33.59
2019-06-26T11:47:45.702Z,33.68
2019-06-26T11:50:13.829Z,33.86
2019-06-26T11:52:42.307Z,33.72
2019-06-26T11:55:14.003Z,33.48
2019-06-26T11:57:42.450Z,33.56
2019-06-26T12:00:16.489Z,33.55
2019-06-26T12:02:44.932Z,33.40
2019-06-26T12:05:16.411Z,33.33
2019-06-26T12:07:44.901Z,32.98
2019-06-26T12:10:14.466Z,33.22
2019-06-26T12:12:42.845Z,33.23
2019-06-26T12:15:13.520Z,33.20
2019-06-26T12:17:41.939Z,33.36
2019-06-26T12:20:18.676Z,33.40
2019-06-26T12:22:41.935Z,33.46
2019-06-26T12:25:10.701Z,33.62
2019-06-26T12:27:39.107Z,33.62
2019-06-26T12:30:09.657Z,33.71
2019-06-26T12:32:42.185Z,33.48
2019-06-26T12:35:08.905Z,33.56
2019-06-26T12:37:38.313Z,33.57
2019-06-26T12:40:09.275Z,33.58
2019-06-26T12:42:37.697Z,33.68
2019-06-26T12:45:08.565Z,33.64
2019-06-26T12:47:36.965Z,33.58
2019-06-26T12:50:10.892Z,33.58
2019-06-26T12:52:39.366Z,33.80
2019-06-26T12:55:09.014Z,33.82
2019-06-26T12:57:37.467Z,33.95
2019-06-26T13:00:10.794Z,33.87
2019-06-26T13:02:39.370Z,33.88
2019-06-26T13:05:09.747Z,34.01
2019-06-26T13:07:38.153Z,34.05
2019-06-26T13:10:08.765Z,34.19
2019-06-26T13:12:37.765Z,34.28
2019-06-26T13:15:07.822Z,34.28
2019-06-26T13:17:36.311Z,34.23
2019-06-26T13:20:10.105Z,34.24
2019-06-26T13:22:37.974Z,34.26
2019-06-26T13:25:09.005Z,34.17
2019-06-26T13:27:40.295Z,34.09
2019-06-26T13:30:09.463Z,34.06
2019-06-26T13:32:37.960Z,34.13
2019-06-26T13:35:07.038Z,34.07
2019-06-26T13:37:35.435Z,33.99
2019-06-26T13:40:05.814Z,34.13
2019-06-26T13:42:34.218Z,34.08
2019-06-26T13:45:03.136Z,34.04
2019-06-26T13:47:31.569Z,34.00
2019-06-26T13:49:59.967Z,34.00
2019-06-26T13:52:28.407Z,33.98
2019-06-26T13:54:57.475Z,33.78
2019-06-26T13:57:26.028Z,33.84
2019-06-26T13:59:54.474Z,33.86
2019-06-26T14:02:22.906Z,33.73
2019-06-26T14:04:51.324Z,33.64
2019-06-26T14:07:19.838Z,33.62
2019-06-26T14:09:48.260Z,33.62
2019-06-26T14:12:19.138Z,33.74
2019-06-26T14:14:57.169Z,33.69
2019-06-26T14:17:17.012Z,33.68
2019-06-26T14:19:45.498Z,33.61
2019-06-26T14:22:13.906Z,33.65
2019-06-26T14:24:42.338Z,33.79
2019-06-26T14:27:10.837Z,33.80
2019-06-26T14:29:39.243Z,33.67
2019-06-26T14:32:07.686Z,33.67
2019-06-26T14:34:36.178Z,33.63
2019-06-26T14:37:04.600Z,33.64
2019-06-26T14:39:33.139Z,33.53
2019-06-26T14:42:01.657Z,33.58
2019-06-26T14:44:30.123Z,33.48
2019-06-26T14:46:58.549Z,33.54
2019-06-26T14:49:26.954Z,33.39
2019-06-26T14:51:55.388Z,33.44
2019-06-26T14:54:23.807Z,33.43
2019-06-26T14:56:52.217Z,33.36
2019-06-26T14:59:20.692Z,33.37
2019-06-26T15:01:49.127Z,33.39
2019-06-26T15:04:17.529Z,33.39
2019-06-26T15:06:45.998Z,33.39
2019-06-26T15:09:14.485Z,33.28
2019-06-26T15:11:42.900Z,33.17
2019-06-26T15:14:11.433Z,33.19
2019-06-26T15:16:39.846Z,33.13
2019-06-26T15:19:08.267Z,33.08
2019-06-26T15:21:36.693Z,32.99
2019-06-26T15:24:05.272Z,33.03
2019-06-26T15:26:33.708Z,32.86
2019-06-26T15:29:02.128Z,32.78
2019-06-26T15:31:30.549Z,32.77
2019-06-26T15:33:58.979Z,32.79
2019-06-26T15:36:27.404Z,32.77
2019-06-26T15:38:59.021Z,32.58
2019-06-26T15:41:26.375Z,32.64
2019-06-26T15:43:54.758Z,32.55
2019-06-26T15:46:23.202Z,32.43
2019-06-26T15:48:51.613Z,32.49
2019-06-26T15:51:20.053Z,32.35
2019-06-26T15:53:48.494Z,32.26
2019-06-26T15:56:16.914Z,32.32
2019-06-26T15:58:45.339Z,32.34
2019-06-26T16:01:13.762Z,32.24
2019-06-26T16:03:42.252Z,32.18
2019-06-26T16:06:10.778Z,32.13
2019-06-26T16:08:39.189Z,31.98
2019-06-26T16:11:07.631Z,31.82
2019-06-26T16:13:36.050Z,31.69
2019-06-26T16:16:04.665Z,31.71
2019-06-26T16:18:34.759Z,31.63
2019-06-26T16:21:03.157Z,31.39
2019-06-26T16:23:31.633Z,31.23
2019-06-26T16:26:00.078Z,31.18
2019-06-26T16:28:28.498Z,31.21
2019-06-26T16:30:57.035Z,31.20
2019-06-26T16:33:25.535Z,31.12
2019-06-26T16:35:53.953Z,31.13
2019-06-26T16:38:22.396Z,30.99
2019-06-26T16:40:50.904Z,30.84
2019-06-26T16:43:19.317Z,30.62
2019-06-26T16:45:47.823Z,30.44
2019-06-26T16:48:16.272Z,30.51
2019-06-26T16:50:44.718Z,30.46
2019-06-26T16:53:13.143Z,30.41
2019-06-26T16:55:41.659Z,30.37
2019-06-26T16:58:10.127Z,30.37
2019-06-26T17:00:38.536Z,30.22
2019-06-26T17:03:07.019Z,30.26
2019-06-26T17:08:33.680Z,30.06
2019-06-26T17:11:02.085Z,30.10
2019-06-26T17:13:30.491Z,30.04
2019-06-26T17:15:59.016Z,29.99
2019-06-26T17:18:27.437Z,29.92
2019-06-26T17:20:55.918Z,29.73
2019-06-26T17:23:24.369Z,29.66
2019-06-26T17:25:52.774Z,29.56
2019-06-26T17:28:21.201Z,29.50
2019-06-26T17:30:52.739Z,29.46
2019-06-26T17:33:19.866Z,29.46
2019-06-26T17:35:48.297Z,29.34
2019-06-26T17:38:16.784Z,29.33
2019-06-26T17:40:45.200Z,29.27
2019-06-26T17:43:13.711Z,29.30
2019-06-26T17:45:42.870Z,29.10
2019-06-26T17:48:11.368Z,29.04
2019-06-26T17:50:39.794Z,28.95
2019-06-26T17:53:21.039Z,28.94
2019-06-26T17:55:38.551Z,28.83
2019-06-26T17:58:06.959Z,28.58
2019-06-26T18:00:36.220Z,28.43
2019-06-26T18:03:05.142Z,28.34
2019-06-26T18:05:33.533Z,28.33
2019-06-26T18:08:02.017Z,28.21
2019-06-26T18:10:30.457Z,28.14
2019-06-26T18:12:58.874Z,28.12
2019-06-26T18:15:27.318Z,28.03
2019-06-26T18:17:55.726Z,27.93
2019-06-26T18:20:24.200Z,27.86
2019-06-26T18:23:05.951Z,27.78
2019-06-26T18:25:22.765Z,27.72
2019-06-26T18:27:51.380Z,27.56
2019-06-26T18:30:22.546Z,27.49
2019-06-26T18:32:50.487Z,27.48
2019-06-26T18:35:18.918Z,27.42
2019-06-26T18:37:47.369Z,27.38
2019-06-26T18:40:15.949Z,27.28
2019-06-26T18:42:44.403Z,27.26
2019-06-26T18:45:13.874Z,27.13
2019-06-26T18:47:42.302Z,27.00
2019-06-26T18:50:10.744Z,26.96
2019-06-26T18:52:39.139Z,26.83
2019-06-26T18:55:08.602Z,26.75
2019-06-26T18:57:37.042Z,26.60
2019-06-26T19:00:08.882Z,26.56
2019-06-26T19:02:37.453Z,26.43
2019-06-26T19:05:07.310Z,26.41
2019-06-26T19:07:35.757Z,26.40
2019-06-26T19:10:09.083Z,26.23
2019-06-26T19:12:38.088Z,26.15
2019-06-26T19:15:07.439Z,25.96
2019-06-26T19:17:35.872Z,25.98
2019-06-26T19:20:06.938Z,25.93
2019-06-26T19:22:35.374Z,25.80
2019-06-26T19:25:07.112Z,25.72
2019-06-26T19:27:35.700Z,25.69
2019-06-26T19:30:06.947Z,25.57
2019-06-26T19:32:37.556Z,25.55
2019-06-26T19:35:18.460Z,25.43
2019-06-26T19:37:36.564Z,25.32
2019-06-26T19:40:08.772Z,25.26
2019-06-26T19:42:36.579Z,25.21
2019-06-26T19:45:08.338Z,25.10
2019-06-26T19:47:36.838Z,25.03
2019-06-26T19:50:07.870Z,24.94
2019-06-26T19:52:36.769Z,24.93
2019-06-26T19:55:08.502Z,24.71
2019-06-26T19:57:37.015Z,24.64
2019-06-26T20:00:08.437Z,24.49
2019-06-26T20:02:36.862Z,24.55
2019-06-26T20:05:07.610Z,24.42
2019-06-26T20:07:36.078Z,24.43
2019-06-26T20:10:06.431Z,24.31
2019-06-26T20:12:35.388Z,24.32
2019-06-26T20:15:05.961Z,24.27
2019-06-26T20:17:34.388Z,24.00
2019-06-26T20:20:04.000Z,23.93
2019-06-26T20:22:32.540Z,23.85
2019-06-26T20:25:00.960Z,23.84
2019-06-26T20:27:29.382Z,23.75
2019-06-26T20:29:57.808Z,23.58
2019-06-26T20:32:26.215Z,23.52
2019-06-26T20:34:54.644Z,23.38
2019-06-26T20:37:24.559Z,23.21
2019-06-26T20:39:52.983Z,23.25
2019-06-26T20:42:21.444Z,23.16
2019-06-26T20:44:49.836Z,23.09
2019-06-26T20:47:18.337Z,23.01
2019-06-26T20:49:53.076Z,22.87
2019-06-26T20:52:16.953Z,22.94
2019-06-26T20:54:59.980Z,22.63
2019-06-26T20:57:15.633Z,22.61
2019-06-26T20:59:44.047Z,22.65
2019-06-26T21:02:12.465Z,22.50
2019-06-26T21:04:40.896Z,22.21
2019-06-26T21:07:09.326Z,22.04
2019-06-26T21:09:37.730Z,22.13
2019-06-26T21:12:06.305Z,22.07
2019-06-26T21:14:34.743Z,21.84
2019-06-26T21:17:03.162Z,21.80
2019-06-26T21:19:31.616Z,21.67
2019-06-26T21:22:00.069Z,21.69
2019-06-26T21:24:28.596Z,21.55
2019-06-26T21:26:57.031Z,21.42
2019-06-26T21:29:25.540Z,21.13
2019-06-26T21:31:53.961Z,20.97
2019-06-26T21:34:22.387Z,20.77
2019-06-26T21:36:50.789Z,20.91
2019-06-26T21:39:19.236Z,20.77
2019-06-26T21:41:47.726Z,20.66
2019-06-26T21:44:16.136Z,20.52
2019-06-26T21:46:44.579Z,20.38
2019-06-26T21:49:12.996Z,20.20
2019-06-26T21:51:41.402Z,20.20
2019-06-26T21:54:09.839Z,20.02
2019-06-26T21:56:38.271Z,20.00
2019-06-26T21:59:06.839Z,19.74
2019-06-26T22:01:35.331Z,19.74
2019-06-26T22:04:04.412Z,19.71
2019-06-26T22:06:32.988Z,19.53
2019-06-26T22:09:01.469Z,19.61
2019-06-26T22:11:29.916Z,19.31
2019-06-26T22:13:58.442Z,19.20
2019-06-26T22:16:26.844Z,19.24
2019-06-26T22:18:55.305Z,19.31
2019-06-26T22:21:23.742Z,19.23
2019-06-26T22:23:52.151Z,19.23
2019-06-26T22:26:20.728Z,19.10
2019-06-26T22:28:49.214Z,19.02
2019-06-26T22:31:17.694Z,18.80
2019-06-26T22:33:46.125Z,18.90
2019-06-26T22:36:14.542Z,18.84
2019-06-26T22:38:42.983Z,18.80
2019-06-26T22:41:11.405Z,18.66
2019-06-26T22:43:40.001Z,18.65
2019-06-26T22:46:08.426Z,18.60
2019-06-26T22:48:36.852Z,18.45
2019-06-26T22:51:05.403Z,18.35
2019-06-26T22:53:33.943Z,18.21
2019-06-26T22:56:07.703Z,18.25
2019-06-26T22:58:33.411Z,18.21
2019-06-26T23:01:01.978Z,18.03
2019-06-26T23:03:31.254Z,18.07
2019-06-26T23:05:59.667Z,17.99
2019-06-26T23:08:28.173Z,17.91
2019-06-26T23:10:56.622Z,17.80
2019-06-26T23:13:25.039Z,17.69
2019-06-26T23:15:53.554Z,17.69
2019-06-26T23:18:22.036Z,17.69
2019-06-26T23:20:50.564Z,17.61
2019-06-26T23:23:19.012Z,17.61
2019-06-26T23:25:47.433Z,17.72
2019-06-26T23:28:15.880Z,17.55
2019-06-26T23:30:44.400Z,17.53
2019-06-26T23:33:12.789Z,17.39
2019-06-26T23:35:41.246Z,17.51
2019-06-26T23:38:09.655Z,17.52
2019-06-26T23:40:38.066Z,17.20
2019-06-26T23:43:06.516Z,17.45
2019-06-26T23:45:34.979Z,17.33
2019-06-26T23:48:03.838Z,17.35
2019-06-26T23:50:32.255Z,17.35
2019-06-26T23:53:00.740Z,17.32
2019-06-26T23:55:29.125Z,17.35
2019-06-26T23:57:59.405Z,17.34
